Time;durP1;ratioP1;P1;durP2;ratioP2;P2;SDS_P1;SDS_P2;PMS_P1;PMS_P2;Temp;Humidity;BMP_temperature;BMP_pressure;BME280_temperature;BME280_humidity;BME280_pressure;Samples;Min_cycle;Max_cycle;Signal;HPM_P1;HPM_P2
2022/07/16 00:03:07;;;;;;;10.85;3.83;;;;;;;11.66;61.05;100442.46;1772837;80;25440;-67
2022/07/16 00:05:34;;;;;;;7.62;4.37;;;;;;;11.62;61.14;100450.42;1773062;80;26189;-68
2022/07/16 00:08:00;;;;;;;7.67;4.05;;;;;;;11.59;61.43;100442.38;1772723;80;25396;-67
2022/07/16 00:10:26;;;;;;;13.95;4.45;;;;;;;11.56;61.89;100442.99;1772010;80;27460;-68
2022/07/16 00:12:52;;;;;;;8.03;4.20;;;;;;;11.53;62.10;100441.47;1772275;80;25852;-68
2022/07/16 00:15:18;;;;;;;8.75;4.33;;;;;;;11.50;61.86;100446.14;1772931;80;25492;-67
2022/07/16 00:17:44;;;;;;;9.40;4.42;;;;;;;11.49;61.47;100445.36;1772088;80;25507;-67
2022/07/16 00:20:11;;;;;;;7.10;3.83;;;;;;;11.49;61.71;100447.24;1772398;80;25551;-67
2022/07/16 00:22:37;;;;;;;12.03;4.65;;;;;;;11.61;62.32;100469.12;1772492;80;27506;-67
2022/07/16 00:25:05;;;;;;;7.58;4.58;;;;;;;11.45;62.23;100448.42;1771798;80;25528;-67
2022/07/16 00:27:31;;;;;;;8.45;4.50;;;;;;;11.43;62.29;100447.94;1772339;80;25445;-67
2022/07/16 00:29:57;;;;;;;8.93;4.20;;;;;;;11.41;62.71;100447.45;1772197;80;25526;-67
2022/07/16 00:32:23;;;;;;;8.18;4.22;;;;;;;11.40;62.87;100441.78;1772746;80;25531;-67
2022/07/16 00:34:49;;;;;;;10.08;4.75;;;;;;;11.39;62.94;100444.23;1772938;80;28168;-67
2022/07/16 00:37:16;;;;;;;8.20;4.40;;;;;;;11.36;62.95;100446.23;1772270;80;32752;-67
2022/07/16 00:39:42;;;;;;;7.47;4.17;;;;;;;11.36;63.12;100444.32;1773369;80;25374;-67
2022/07/16 00:42:08;;;;;;;9.65;4.47;;;;;;;11.36;63.20;100435.41;1772397;80;25553;-67
2022/07/16 00:44:34;;;;;;;7.80;4.50;;;;;;;11.36;62.94;100437.55;1804315;79;25852;-67
2022/07/16 00:47:00;;;;;;;8.80;4.53;;;;;;;11.37;62.95;100435.62;1808226;79;27541;-67
2022/07/16 00:49:26;;;;;;;8.93;4.42;;;;;;;11.34;62.84;100431.65;1807967;79;25362;-67
2022/07/16 00:51:53;;;;;;;7.17;4.40;;;;;;;11.36;63.12;100434.05;1808019;79;25410;-67
2022/07/16 00:54:20;;;;;;;15.05;5.78;;;;;;;11.33;63.28;100430.60;1807893;79;26159;-67
2022/07/16 00:56:47;;;;;;;10.93;4.15;;;;;;;11.31;63.37;100428.77;1807799;79;25628;-67
2022/07/16 00:59:15;;;;;;;8.60;4.15;;;;;;;11.32;63.58;100433.05;1808120;79;27499;-68
2022/07/16 01:01:41;;;;;;;11.03;4.42;;;;;;;11.31;63.46;100434.97;1808015;79;25386;-68
2022/07/16 01:04:10;;;;;;;7.35;4.08;;;;;;;11.31;63.67;100432.83;1807947;79;25604;-67
2022/07/16 01:06:37;;;;;;;14.27;4.33;;;;;;;11.30;63.57;100435.28;1738726;82;25623;-68
2022/07/16 01:09:03;;;;;;;9.00;4.47;;;;;;;11.30;63.82;100431.22;1809766;79;25567;-67
2022/07/16 01:11:32;;;;;;;8.00;4.15;;;;;;;11.31;64.00;100432.27;1810681;79;27546;-68
2022/07/16 01:13:59;;;;;;;11.33;4.78;;;;;;;11.32;64.08;100433.05;1810279;79;25381;-68
2022/07/16 01:16:25;;;;;;;5.10;3.62;;;;;;;11.32;64.01;100430.34;1779620;79;25390;-68
2022/07/16 01:18:52;;;;;;;7.40;4.55;;;;;;;11.29;64.09;100430.42;1810703;79;25581;-68
2022/07/16 01:21:18;;;;;;;7.95;4.90;;;;;;;11.30;64.30;100426.59;1741103;82;25438;-68
2022/07/16 01:23:47;;;;;;;8.95;4.45;;;;;;;11.28;64.31;100426.11;1809887;79;28188;-68
2022/07/16 01:26:13;;;;;;;13.48;4.55;;;;;;;11.29;64.35;100425.55;1740877;82;25433;-68
2022/07/16 01:28:39;;;;;;;10.48;4.33;;;;;;;11.29;64.54;100422.30;1810732;79;25601;-68
2022/07/16 01:31:05;;;;;;;8.40;4.35;;;;;;;11.31;64.39;100422.79;1810523;79;25484;-68
2022/07/16 01:33:36;;;;;;;6.15;4.12;;;;;;;11.34;64.48;100420.00;1810427;79;25438;-68
2022/07/16 01:36:13;;;;;;;9.15;4.58;;;;;;;11.38;64.41;100420.98;1810263;79;27339;-68
2022/07/16 01:38:43;;;;;;;11.75;4.25;;;;;;;11.40;64.57;100418.20;1810615;79;25972;-67
2022/07/16 01:41:11;;;;;;;8.58;3.80;;;;;;;11.44;64.70;100418.41;1810480;79;25426;-68
2022/07/16 01:43:38;;;;;;;9.48;4.35;;;;;;;11.50;64.72;100417.14;1809150;79;25486;-68
2022/07/16 01:46:05;;;;;;;8.68;3.67;;;;;;;11.53;64.74;100413.81;1808189;79;25447;-67
2022/07/16 01:48:32;;;;;;;9.43;3.92;;;;;;;11.58;64.98;100419.09;1808109;79;27406;-67
2022/07/16 01:50:59;;;;;;;6.92;4.00;;;;;;;11.62;64.47;100417.91;1808006;79;25885;-69
2022/07/16 01:53:28;;;;;;;6.15;4.10;;;;;;;11.67;64.75;100418.33;1808037;79;25376;-68
2022/07/16 01:55:55;;;;;;;9.48;4.03;;;;;;;11.68;64.23;100415.84;1808237;79;32459;-69
2022/07/16 01:58:21;;;;;;;8.55;4.08;;;;;;;11.69;64.21;100416.89;1807852;79;25504;-69
2022/07/16 02:00:47;;;;;;;8.38;3.83;;;;;;;11.73;64.24;100419.23;1808081;79;28156;-69
2022/07/16 02:03:15;;;;;;;7.25;3.80;;;;;;;11.73;64.24;100408.40;1807934;79;25562;-69
2022/07/16 02:05:42;;;;;;;13.15;4.50;;;;;;;11.75;64.17;100404.02;1808190;78;25576;-67
2022/07/16 02:08:10;;;;;;;5.83;3.92;;;;;;;11.75;64.00;100407.52;1808021;78;26340;-67
2022/07/16 02:10:38;;;;;;;9.88;4.47;;;;;;;11.78;64.11;100414.21;1740496;81;25398;-67
2022/07/16 02:13:04;;;;;;;7.50;3.80;;;;;;;11.77;64.13;100407.21;1810022;79;27444;-67
2022/07/16 02:15:32;;;;;;;6.22;3.47;;;;;;;11.78;64.17;100399.30;1810574;79;25800;-67
2022/07/16 02:17:59;;;;;;;5.55;3.83;;;;;;;11.80;64.16;100401.17;1810620;79;25365;-68
2022/07/16 02:20:25;;;;;;;6.92;3.90;;;;;;;11.83;64.25;100399.16;1810559;79;25617;-68
2022/07/16 02:22:56;;;;;;;7.58;3.30;;;;;;;11.85;64.36;100403.73;1810332;79;25610;-67
2022/07/16 02:25:23;;;;;;;10.75;3.75;;;;;;;11.87;64.22;100397.44;1810775;79;27472;-68
2022/07/16 02:28:07;;;;;;;6.85;3.77;;;;;;;11.89;64.32;100400.63;1810544;79;25601;-68
2022/07/16 02:30:37;;;;;;;6.50;3.58;;;;;;;11.89;64.31;100397.91;1810386;79;25539;-67
2022/07/16 02:33:04;;;;;;;7.42;3.80;;;;;;;12.02;64.40;100414.39;1810803;79;25568;-68
2022/07/16 02:35:30;;;;;;;5.10;3.42;;;;;;;12.02;64.40;100414.39;1810770;79;25601;-67
2022/07/16 02:37:58;;;;;;;10.50;4.22;;;;;;;11.92;64.12;100392.47;1810326;79;27633;-69
2022/07/16 02:40:25;;;;;;;8.60;4.00;;;;;;;11.95;64.23;100396.70;1810466;79;25557;-68
2022/07/16 02:42:51;;;;;;;7.80;4.08;;;;;;;11.96;64.33;100391.50;1741120;82;25421;-67
2022/07/16 02:45:17;;;;;;;8.23;3.80;;;;;;;11.96;64.33;100388.78;1791236;79;25476;-67
2022/07/16 02:47:44;;;;;;;7.67;3.87;;;;;;;11.97;64.47;100386.89;1789707;79;25402;-68
2022/07/16 02:50:10;;;;;;;9.23;4.12;;;;;;;11.98;64.33;100387.69;1789672;79;27514;-68
2022/07/16 02:52:36;;;;;;;4.58;3.55;;;;;;;11.98;64.28;100387.69;1789527;80;25502;-68
2022/07/16 02:55:05;;;;;;;10.63;3.65;;;;;;;11.99;64.34;100390.08;1789069;79;25472;-68
2022/07/16 02:57:32;;;;;;;5.20;3.80;;;;;;;12.00;64.54;100384.09;1789874;79;25539;-68
2022/07/16 02:59:59;;;;;;;6.45;3.70;;;;;;;12.01;64.57;100395.98;1789475;79;25724;-69
2022/07/16 03:02:26;;;;;;;5.80;3.30;;;;;;;12.03;64.64;100401.09;1710852;83;27478;-69
2022/07/16 03:04:52;;;;;;;8.23;4.05;;;;;;;12.04;64.52;100391.29;1705295;84;25541;-68
2022/07/16 03:07:18;;;;;;;7.90;4.20;;;;;;;12.03;64.45;100394.31;1792436;80;25574;-69
2022/07/16 03:09:44;;;;;;;7.05;3.90;;;;;;;12.04;64.56;100395.92;1709263;83;26221;-69
2022/07/16 03:12:10;;;;;;;6.33;3.42;;;;;;;12.04;64.54;100397.28;1729516;82;25598;-69
2022/07/16 03:14:40;;;;;;;5.55;3.58;;;;;;;12.06;64.54;100398.55;1708457;83;27593;-69
2022/07/16 03:17:06;;;;;;;6.05;4.00;;;;;;;12.09;64.69;100391.70;1789813;79;25814;-69
2022/07/16 03:19:32;;;;;;;7.83;3.67;;;;;;;12.10;64.54;100392.72;1789770;80;25555;-68
2022/07/16 03:21:58;;;;;;;6.20;3.70;;;;;;;12.13;64.70;100392.09;1789759;80;25934;-69
2022/07/16 03:24:24;;;;;;;8.98;3.37;;;;;;;12.15;64.60;100396.63;1789794;79;25393;-68
2022/07/16 03:26:50;;;;;;;7.92;4.12;;;;;;;12.17;64.54;100396.31;1708395;83;29785;-68
2022/07/16 03:29:16;;;;;;;6.15;3.72;;;;;;;12.20;64.63;100396.25;1789546;79;25444;-69
2022/07/16 03:31:42;;;;;;;7.10;3.98;;;;;;;12.23;64.77;100390.20;1789720;79;25179;-69
2022/07/16 03:34:08;;;;;;;7.78;3.45;;;;;;;12.23;64.77;100390.20;1789746;80;25609;-68
2022/07/16 03:36:34;;;;;;;6.80;3.75;;;;;;;12.24;64.74;100391.25;1791043;79;25448;-68
2022/07/16 03:39:05;;;;;;;10.48;4.45;;;;;;;12.26;64.76;100391.72;1792397;79;28142;-68
2022/07/16 03:41:29;;;;;;;6.03;3.40;;;;;;;12.29;64.72;100390.27;1790663;79;25524;-68
2022/07/16 03:43:55;;;;;;;6.12;3.30;;;;;;;12.30;64.80;100385.89;1792215;79;25591;-68
2022/07/16 03:46:21;;;;;;;8.60;3.95;;;;;;;12.34;64.81;100384.69;1792323;79;25514;-68
2022/07/16 03:48:50;;;;;;;6.58;3.40;;;;;;;12.36;64.78;100382.48;1710803;83;25455;-69
2022/07/16 03:51:17;;;;;;;4.97;3.67;;;;;;;12.40;64.65;100383.42;1792625;79;27523;-69
2022/07/16 03:53:43;;;;;;;7.12;3.75;;;;;;;12.45;64.82;100381.12;1792291;80;25372;-68
2022/07/16 03:56:09;;;;;;;6.33;3.75;;;;;;;12.50;64.93;100379.61;1792393;80;25400;-69
2022/07/16 03:58:36;;;;;;;6.40;3.87;;;;;;;12.55;64.94;100378.09;1792410;79;26209;-69
2022/07/16 04:01:02;;;;;;;8.75;3.70;;;;;;;12.63;64.90;100377.83;1792484;80;25615;-68
2022/07/16 04:03:29;;;;;;;7.97;3.00;;;;;;;12.67;64.77;100374.16;1792420;80;27506;-69
2022/07/16 04:05:55;;;;;;;9.68;4.55;;;;;;;12.72;64.76;100371.85;1792367;79;25544;-69
2022/07/16 04:08:21;;;;;;;5.78;3.22;;;;;;;12.76;64.74;100367.36;1792450;79;25617;-69
2022/07/16 04:10:47;;;;;;;7.42;3.10;;;;;;;12.80;64.69;100359.37;1789833;79;26136;-69
2022/07/16 04:13:13;;;;;;;6.22;3.33;;;;;;;12.85;64.86;100359.99;1789678;79;25612;-69
2022/07/16 04:15:39;;;;;;;5.72;3.25;;;;;;;12.87;64.47;100366.45;1708135;83;27523;-68
2022/07/16 04:18:06;;;;;;;9.45;3.87;;;;;;;12.90;64.47;100369.89;1789451;80;25382;-68
2022/07/16 04:20:33;;;;;;;4.28;3.00;;;;;;;12.95;64.58;100368.36;1789754;79;25570;-67
2022/07/16 04:23:00;;;;;;;4.15;3.00;;;;;;;12.97;64.55;100362.05;1707850;83;27766;-68
2022/07/16 04:25:26;;;;;;;6.12;2.98;;;;;;;12.99;64.41;100365.26;1789514;80;25576;-69
2022/07/16 04:27:52;;;;;;;4.50;2.87;;;;;;;13.00;64.42;100357.33;1789588;79;28138;-69
2022/07/16 04:30:19;;;;;;;7.37;2.98;;;;;;;13.03;64.42;100355.33;1789529;79;25742;-69
2022/07/16 04:32:45;;;;;;;9.53;3.00;;;;;;;13.08;64.35;100355.73;1789621;79;25581;-69
2022/07/16 04:35:14;;;;;;;10.88;3.15;;;;;;;13.13;64.44;100357.45;1789406;79;25447;-68
2022/07/16 04:37:41;;;;;;;6.90;2.85;;;;;;;13.19;64.53;100365.09;1789729;79;25392;-68
2022/07/16 04:40:10;;;;;;;4.85;2.75;;;;;;;13.26;64.35;100364.59;1789554;79;27556;-68
2022/07/16 04:42:39;;;;;;;4.75;2.87;;;;;;;13.33;64.40;100373.64;1789662;79;25714;-68
2022/07/16 04:45:08;;;;;;;4.20;2.72;;;;;;;13.38;64.32;100376.98;1789444;79;25430;-68
2022/07/16 04:47:34;;;;;;;5.90;2.70;;;;;;;13.43;64.23;100386.86;1789718;79;26250;-67
2022/07/16 04:50:01;;;;;;;7.90;3.17;;;;;;;13.53;64.49;100391.94;1789602;79;25444;-67
2022/07/16 04:52:27;;;;;;;6.10;3.00;;;;;;;13.62;64.26;100389.17;1789545;79;28288;-67
2022/07/16 04:54:53;;;;;;;5.87;2.83;;;;;;;13.68;63.98;100393.89;1789466;79;25622;-67
2022/07/16 04:57:19;;;;;;;5.78;2.98;;;;;;;13.78;63.95;100398.95;1789493;80;25174;-68
2022/07/16 04:59:45;;;;;;;5.75;2.90;;;;;;;13.85;63.91;100390.28;1789539;80;25562;-68
2022/07/16 05:04:56;;;;;;;5.30;2.90;;;;;;;13.98;63.54;100385.95;1708123;83;28103;-68
2022/07/16 05:07:22;;;;;;;9.15;2.47;;;;;;;14.07;63.56;100385.90;1727017;82;25999;-68
2022/07/16 05:09:48;;;;;;;10.40;3.08;;;;;;;14.12;63.05;100386.28;1789036;80;25597;-67
2022/07/16 05:12:14;;;;;;;4.12;2.50;;;;;;;14.14;63.01;100387.52;1789573;79;25764;-68
2022/07/16 05:14:40;;;;;;;6.42;2.62;;;;;;;14.19;62.88;100376.45;1789618;79;25560;-68
2022/07/16 05:17:06;;;;;;;5.20;2.42;;;;;;;14.26;63.02;100376.49;1789219;79;27455;-68
2022/07/16 05:19:32;;;;;;;5.65;2.60;;;;;;;14.34;62.86;100381.08;1789489;79;25532;-68
2022/07/16 05:21:58;;;;;;;4.47;2.42;;;;;;;14.40;62.62;100375.66;1789684;79;25571;-68
2022/07/16 05:24:24;;;;;;;7.28;2.80;;;;;;;14.46;62.60;100382.50;1789463;80;25456;-68
2022/07/16 05:26:50;;;;;;;6.37;2.83;;;;;;;14.57;62.72;100379.61;1789496;79;25536;-68
2022/07/16 05:29:16;;;;;;;5.85;2.60;;;;;;;14.69;62.53;100384.34;1789513;80;27509;-68
2022/07/16 05:31:42;;;;;;;5.47;2.50;;;;;;;14.81;62.40;100379.48;1789494;79;25849;-68
2022/07/16 05:34:09;;;;;;;5.33;2.60;;;;;;;14.93;62.16;100382.80;1710726;83;25473;-68
2022/07/16 05:36:36;;;;;;;5.03;2.65;;;;;;;14.99;61.95;100380.69;1730746;82;26254;-69
2022/07/16 05:39:02;;;;;;;4.17;2.58;;;;;;;15.07;61.36;100377.87;1726579;81;25482;-69
2022/07/16 05:41:29;;;;;;;6.12;2.27;;;;;;;15.12;61.09;100375.50;1720347;82;27476;-68
2022/07/16 05:43:55;;;;;;;6.55;2.40;;;;;;;15.19;61.25;100369.47;1785442;80;25350;-69
2022/07/16 05:46:21;;;;;;;7.15;3.30;;;;;;;15.30;61.17;100367.91;1789419;79;25379;-69
2022/07/16 05:48:47;;;;;;;8.28;2.52;;;;;;;15.39;60.69;100366.44;1789486;79;26173;-69
2022/07/16 05:51:13;;;;;;;7.03;2.70;;;;;;;15.47;60.81;100359.52;1792024;79;25384;-69
2022/07/16 05:53:39;;;;;;;6.95;2.65;;;;;;;15.55;60.51;100361.12;1792287;80;27579;-69
2022/07/16 05:56:06;;;;;;;6.58;2.67;;;;;;;15.64;59.94;100362.58;1792280;79;25279;-69
2022/07/16 05:58:32;;;;;;;5.22;2.20;;;;;;;15.69;59.50;100359.63;1792315;79;25404;-69
2022/07/16 06:00:59;;;;;;;4.22;2.00;;;;;;;15.75;59.21;100359.39;1792273;79;25595;-69
2022/07/16 06:03:26;;;;;;;2.85;2.15;;;;;;;15.80;58.97;100361.92;1792354;79;25464;-69
2022/07/16 06:05:52;;;;;;;3.00;1.90;;;;;;;15.80;58.30;100360.01;1792366;79;27544;-69
2022/07/16 06:08:20;;;;;;;5.33;2.67;;;;;;;15.86;58.82;100355.89;1792212;79;25408;-69
2022/07/16 06:10:47;;;;;;;9.23;2.40;;;;;;;15.96;58.47;100360.09;1792656;80;25610;-69
2022/07/16 06:13:13;;;;;;;12.03;2.30;;;;;;;16.04;58.38;100351.56;1710753;83;25611;-69
2022/07/16 06:15:39;;;;;;;8.18;2.15;;;;;;;16.08;57.64;100355.77;1792416;79;25423;-69
2022/07/16 06:18:05;;;;;;;14.13;2.58;;;;;;;16.12;57.83;100352.56;1763913;80;28164;-70
2022/07/16 06:20:32;;;;;;;9.10;2.00;;;;;;;16.26;58.05;100358.45;1710583;82;25553;-67
2022/07/16 06:22:59;;;;;;;9.68;2.50;;;;;;;16.40;57.96;100354.75;1704943;84;25581;-67
2022/07/16 06:25:26;;;;;;;4.37;1.85;;;;;;;16.56;57.67;100355.37;1792623;79;25441;-68
2022/07/16 06:27:52;;;;;;;6.22;2.27;;;;;;;16.70;57.50;100347.59;1792548;80;25364;-68
2022/07/16 06:30:19;;;;;;;3.98;2.12;;;;;;;16.87;56.88;100347.05;1792601;79;27478;-68
2022/07/16 06:32:45;;;;;;;9.55;2.40;;;;;;;16.99;56.11;100350.53;1710454;83;25791;-68
2022/07/16 06:35:12;;;;;;;12.35;2.42;;;;;;;17.07;56.39;100346.60;1789626;80;25538;-68
2022/07/16 06:37:39;;;;;;;7.12;2.37;;;;;;;17.20;55.94;100350.84;1792020;80;25535;-68
2022/07/16 06:40:08;;;;;;;4.90;2.17;;;;;;;17.30;55.69;100344.85;1792480;80;25321;-69
2022/07/16 06:42:35;;;;;;;7.23;2.30;;;;;;;17.45;55.88;100341.89;1792733;80;27651;-69
2022/07/16 06:45:01;;;;;;;6.45;2.10;;;;;;;17.52;55.55;100342.06;1792885;79;25729;-69
2022/07/16 06:47:27;;;;;;;4.12;1.80;;;;;;;17.70;55.97;100345.19;1794618;79;25417;-70
2022/07/16 06:49:53;;;;;;;6.17;2.17;;;;;;;17.80;54.40;100347.95;1794633;79;26176;-69
2022/07/16 06:52:19;;;;;;;4.87;2.20;;;;;;;17.81;54.19;100346.01;1794767;79;25464;-69
2022/07/16 06:54:46;;;;;;;5.92;2.47;;;;;;;17.83;53.38;100341.78;1794705;80;27536;-68
2022/07/16 06:57:12;;;;;;;7.00;2.08;;;;;;;17.88;53.64;100342.90;1794552;79;25426;-69
2022/07/16 06:59:38;;;;;;;5.42;2.00;;;;;;;17.89;53.45;100349.16;1794608;79;25549;-68
2022/07/16 07:02:04;;;;;;;6.12;2.00;;;;;;;18.09;54.29;100347.25;1794556;79;26245;-69
2022/07/16 07:04:30;;;;;;;5.53;2.17;;;;;;;18.41;53.97;100345.77;1726649;82;25652;-69
2022/07/16 07:06:57;;;;;;;7.33;2.50;;;;;;;18.54;52.25;100344.46;1735221;82;27740;-68
2022/07/16 07:09:23;;;;;;;10.53;2.05;;;;;;;18.53;51.94;100337.39;1726629;83;25537;-68
2022/07/16 07:11:49;;;;;;;6.90;2.12;;;;;;;18.61;51.87;100336.93;1725218;83;25471;-68
2022/07/16 07:14:16;;;;;;;7.20;2.15;;;;;;;18.78;51.97;100339.79;1726759;83;26170;-68
2022/07/16 07:16:42;;;;;;;5.22;1.92;;;;;;;18.86;51.30;100336.06;1726685;82;25664;-68
2022/07/16 07:19:08;;;;;;;4.60;1.50;;;;;;;19.10;51.14;100336.86;1726789;82;27572;-68
2022/07/16 07:21:35;;;;;;;7.20;1.95;;;;;;;19.22;50.97;100331.19;1726689;82;25894;-68
2022/07/16 07:24:01;;;;;;;7.17;2.58;;;;;;;19.44;50.24;100329.58;1726726;82;25469;-68
2022/07/16 07:26:27;;;;;;;6.78;1.98;;;;;;;19.78;50.13;100334.64;1726623;82;25553;-67
2022/07/16 07:28:53;;;;;;;8.58;2.42;;;;;;;20.00;49.62;100329.43;1726670;82;25545;-67
2022/07/16 07:31:19;;;;;;;10.55;2.30;;;;;;;20.20;49.16;100334.79;1726612;83;28227;-68
2022/07/16 07:33:45;;;;;;;8.50;2.30;;;;;;;20.26;48.38;100329.16;1726631;82;25579;-68
2022/07/16 07:36:11;;;;;;;4.87;1.90;;;;;;;20.28;48.19;100336.47;1726648;82;25381;-68
2022/07/16 07:38:38;;;;;;;5.97;1.80;;;;;;;20.38;48.44;100328.13;1726627;82;25492;-68
2022/07/16 07:41:04;;;;;;;5.03;2.08;;;;;;;20.50;47.18;100329.27;1726808;82;25494;-68
2022/07/16 07:43:30;;;;;;;3.80;1.72;;;;;;;20.53;47.76;100321.63;1726633;82;28144;-68
2022/07/16 07:45:57;;;;;;;10.78;2.25;;;;;;;20.72;47.15;100322.05;1729832;82;25583;-68
2022/07/16 07:48:23;;;;;;;8.98;1.85;;;;;;;21.02;47.26;100325.28;1741257;82;25602;-68
2022/07/16 07:50:50;;;;;;;3.92;1.52;;;;;;;21.19;46.44;100320.52;1741170;82;25698;-68
2022/07/16 07:53:16;;;;;;;4.87;1.82;;;;;;;21.33;45.63;100321.20;1741303;82;25447;-68
2022/07/16 07:55:42;;;;;;;8.70;1.82;;;;;;;21.44;46.07;100313.05;1741168;82;27476;-68
2022/07/16 07:58:09;;;;;;;14.47;1.80;;;;;;;21.61;44.78;100320.66;1741178;82;25400;-68
2022/07/16 08:00:36;;;;;;;6.58;2.10;;;;;;;21.74;44.72;100322.52;1741207;82;25639;-68
2022/07/16 08:03:03;;;;;;;6.00;1.60;;;;;;;21.88;44.78;100312.73;1719754;82;25669;-69
2022/07/16 08:05:29;;;;;;;6.17;1.60;;;;;;;22.01;43.76;100317.55;1741350;82;25452;-68
2022/07/16 08:07:55;;;;;;;5.80;1.85;;;;;;;21.96;43.20;100319.86;1741215;82;27648;-68
2022/07/16 08:10:21;;;;;;;6.78;1.60;;;;;;;21.97;43.25;100313.97;1741181;81;25753;-68
2022/07/16 08:12:48;;;;;;;5.28;1.57;;;;;;;21.99;42.23;100312.20;1741207;82;25542;-69
2022/07/16 08:15:15;;;;;;;6.45;2.22;;;;;;;21.96;42.13;100325.36;1741328;82;25473;-69
2022/07/16 08:17:41;;;;;;;5.08;1.70;;;;;;;21.96;41.43;100311.03;1741360;82;25407;-69
2022/07/16 08:20:10;;;;;;;5.28;1.50;;;;;;;22.04;42.17;100319.31;1741282;82;27466;-69
2022/07/16 08:22:36;;;;;;;4.40;1.10;;;;;;;22.04;41.64;100309.08;1741020;82;32914;-68
2022/07/16 08:27:49;;;;;;;9.00;1.30;;;;;;;22.06;41.34;100310.86;1741323;82;26375;-68
2022/07/16 08:30:15;;;;;;;4.40;1.10;;;;;;;22.16;40.63;100310.11;1741436;82;25437;-68
2022/07/16 08:32:41;;;;;;;7.28;1.60;;;;;;;22.08;40.57;100311.25;1741310;82;29764;-69
2022/07/16 08:35:08;;;;;;;5.53;2.15;;;;;;;22.30;41.58;100301.73;1740729;82;25421;-69
2022/07/16 08:37:37;;;;;;;6.90;1.22;;;;;;;22.70;41.77;100304.01;1741092;82;25506;-68
2022/07/16 08:40:08;;;;;;;4.85;1.62;;;;;;;22.73;39.39;100298.50;1741295;82;25505;-68
2022/07/16 08:42:36;;;;;;;5.22;1.25;;;;;;;22.52;39.79;100296.47;1738372;82;25618;-68
2022/07/16 08:45:06;;;;;;;5.83;1.42;;;;;;;22.47;39.43;100287.80;1810539;79;27451;-68
2022/07/16 08:47:32;;;;;;;;;;;;;;;22.71;39.25;100294.54;1791798;80;25642;-68
2022/07/16 08:50:02;;;;;;;4.78;1.50;;;;;;;22.87;39.43;100284.53;1789578;80;25456;-68
2022/07/16 08:52:30;;;;;;;3.87;1.30;;;;;;;22.98;38.86;100296.94;1789423;79;25480;-69
2022/07/16 08:54:57;;;;;;;1.62;1.00;;;;;;;22.97;38.29;100275.47;1789654;80;25374;-69
2022/07/16 08:57:26;;;;;;;7.58;1.67;;;;;;;23.07;38.54;100268.38;1789599;79;27527;-69
2022/07/16 08:59:54;;;;;;;2.58;0.82;;;;;;;23.30;38.02;100277.64;1789486;80;25533;-70
2022/07/16 09:02:20;;;;;;;6.10;1.50;;;;;;;23.53;38.27;100277.78;1792210;79;25615;-68
2022/07/16 09:04:47;;;;;;;5.00;1.00;;;;;;;23.65;37.78;100279.55;1792360;79;26122;-68
2022/07/16 09:07:17;;;;;;;2.12;1.00;;;;;;;23.92;37.04;100276.91;1792332;80;25403;-68
2022/07/16 09:09:45;;;;;;;3.65;1.37;;;;;;;24.10;36.91;100278.23;1792366;80;28146;-68
2022/07/16 09:12:34;;;;;;;3.67;1.27;;;;;;;24.63;36.61;100267.47;1792258;79;25539;-68
2022/07/16 09:15:04;;;;;;;2.35;1.10;;;;;;;25.02;36.04;100272.52;1792493;80;25415;-69
2022/07/16 09:17:30;;;;;;;3.20;1.17;;;;;;;25.03;34.15;100271.30;1784650;80;25581;-68
2022/07/16 09:19:56;;;;;;;2.08;1.25;;;;;;;25.07;34.96;100271.48;1792232;79;25369;-68
2022/07/16 09:22:24;;;;;;;4.17;1.10;;;;;;;25.64;36.08;100266.00;1792149;80;27567;-68
2022/07/16 09:24:54;;;;;;;3.65;1.05;;;;;;;26.63;36.07;100262.36;1792034;80;25390;-68
2022/07/16 09:27:26;;;;;;;3.20;1.17;;;;;;;27.44;32.53;100260.61;1792298;80;25180;-68
2022/07/16 09:30:02;;;;;;;11.10;1.35;;;;;;;27.13;31.38;100262.74;1710434;83;26226;-68
2022/07/16 09:32:39;;;;;;;1.35;0.90;;;;;;;26.90;32.18;100266.30;1701994;84;25640;-69
2022/07/16 09:35:17;;;;;;;1.47;1.27;;;;;;;26.71;31.60;100267.19;1789600;80;28084;-69
2022/07/16 09:37:54;;;;;;;2.60;1.72;;;;;;;26.25;31.24;100268.63;1789724;79;25638;-70
2022/07/16 09:40:38;;;;;;;4.55;0.80;;;;;;;26.01;31.75;100276.86;1789685;80;25435;-68
2022/07/16 09:43:15;;;;;;;3.15;1.32;;;;;;;26.18;31.87;100262.58;1791060;80;27713;-69
2022/07/16 09:45:45;;;;;;;5.15;1.40;;;;;;;26.23;31.63;100256.56;1792801;80;25444;-69
2022/07/16 09:48:29;;;;;;;3.17;1.07;;;;;;;26.66;31.16;100259.34;1794752;79;27590;-69
2022/07/16 09:51:00;;;;;;;3.58;1.22;;;;;;;27.27;32.42;100253.38;1794287;80;25396;-69
2022/07/16 09:53:27;;;;;;;2.58;1.10;;;;;;;27.23;31.15;100260.38;1792490;79;25613;-69
2022/07/16 09:56:04;;;;;;;3.65;1.30;;;;;;;26.92;31.32;100259.71;1794606;80;26125;-69
2022/07/16 09:58:31;;;;;;;5.35;1.50;;;;;;;26.48;30.23;100259.59;1794610;79;25484;-68
2022/07/16 10:01:00;;;;;;;6.83;1.20;;;;;;;25.86;30.79;100264.34;1794801;79;28144;-69
2022/07/16 10:03:28;;;;;;;3.52;1.02;;;;;;;25.40;31.26;100251.82;1794824;79;25803;-69
2022/07/16 10:05:55;;;;;;;2.90;1.20;;;;;;;25.46;31.25;100252.34;1794920;79;25377;-68
2022/07/16 10:08:23;;;;;;;6.10;1.12;;;;;;;25.51;31.77;100259.42;1794616;80;25499;-69
2022/07/16 10:10:51;;;;;;;4.30;1.07;;;;;;;25.13;31.35;100257.97;1794803;80;25388;-68
2022/07/16 10:13:21;;;;;;;3.75;1.20;;;;;;;24.73;31.84;100245.09;1794523;79;28236;-68
2022/07/16 10:15:47;;;;;;;3.05;1.42;;;;;;;24.38;32.54;100247.67;1794455;79;25381;-69
2022/07/16 10:18:46;;;;;;;4.55;1.10;;;;;;;24.16;33.25;100238.73;1726806;82;25482;-69
2022/07/16 10:21:23;;;;;;;5.05;1.50;;;;;;;24.18;33.67;100245.23;1727160;82;25705;-68
2022/07/16 10:24:06;;;;;;;3.87;1.32;;;;;;;24.23;34.58;100241.44;1726850;82;25430;-68
2022/07/16 10:26:34;;;;;;;5.05;1.15;;;;;;;24.56;33.69;100237.89;1734775;82;27577;-68
2022/07/16 10:29:02;;;;;;;3.52;1.20;;;;;;;24.51;32.75;100224.47;1794675;80;25598;-68
2022/07/16 10:34:36;;;;;;;3.27;1.42;;;;;;;24.18;33.16;100233.58;1726578;82;25564;-68
2022/07/16 10:37:05;;;;;;;3.75;1.32;;;;;;;23.76;33.46;100222.12;1726492;82;25598;-68
2022/07/16 10:39:31;;;;;;;2.10;1.20;;;;;;;23.43;33.81;100207.05;1727022;82;27530;-68
2022/07/16 10:42:01;;;;;;;4.72;1.50;;;;;;;23.23;34.45;100210.05;1734558;82;25801;-68
2022/07/16 10:44:47;;;;;;;3.17;1.12;;;;;;;23.15;34.31;100223.06;1735294;82;26838;-68
2022/07/16 10:47:15;;;;;;;4.80;1.17;;;;;;;23.04;34.29;100218.14;1799633;79;25622;-67
2022/07/16 10:49:41;;;;;;;1.47;1.00;;;;;;;22.83;34.24;100205.14;1810751;79;25399;-68
2022/07/16 10:52:15;;;;;;;3.90;1.10;;;;;;;22.75;34.30;100205.15;1810731;79;27513;-68
2022/07/16 10:54:53;;;;;;;6.45;1.20;;;;;;;22.95;34.66;100208.87;1810830;79;25609;-68
2022/07/16 10:57:32;;;;;;;8.05;1.25;;;;;;;23.16;34.62;100203.96;1803444;79;25587;-69
2022/07/16 10:59:59;;;;;;;3.83;1.22;;;;;;;23.19;34.48;100206.50;1810615;79;25489;-69
2022/07/16 11:02:25;;;;;;;4.03;1.20;;;;;;;23.17;34.81;100197.23;1810688;79;25637;-69
2022/07/16 11:04:53;;;;;;;4.35;1.22;;;;;;;23.17;34.76;100194.48;1810521;78;27485;-69
2022/07/16 11:07:22;;;;;;;2.72;1.30;;;;;;;23.06;34.52;100195.89;1810638;79;25826;-69
2022/07/16 11:09:53;;;;;;;3.25;1.42;;;;;;;22.94;34.85;100189.38;1810872;79;25648;-69
2022/07/16 11:12:26;;;;;;;2.90;1.50;;;;;;;23.02;35.11;100203.36;1810402;79;27656;-69
2022/07/16 11:14:56;;;;;;;1.65;1.00;;;;;;;23.33;34.51;100184.41;1810831;79;25546;-68
2022/07/16 11:17:27;;;;;;;2.67;1.25;;;;;;;23.68;33.94;100182.12;1810751;79;27454;-68
2022/07/16 11:19:56;;;;;;;1.70;1.22;;;;;;;23.97;33.70;100207.44;1810564;79;25902;-69
2022/07/16 11:22:27;;;;;;;4.12;1.30;;;;;;;23.86;33.06;100191.71;1810833;79;25534;-68
2022/07/16 11:25:00;;;;;;;2.77;1.15;;;;;;;23.63;32.82;100190.01;1810742;79;25466;-68
2022/07/16 11:27:31;;;;;;;1.90;1.05;;;;;;;23.33;33.46;100183.60;1808106;79;25633;-69
2022/07/16 11:30:00;;;;;;;2.67;1.20;;;;;;;23.11;34.02;100185.83;1741648;82;28264;-68
2022/07/16 11:32:27;;;;;;;4.08;1.87;;;;;;;22.93;34.28;100176.77;1741256;82;25463;-68
2022/07/16 11:34:54;;;;;;;4.60;1.40;;;;;;;22.67;34.85;100183.49;1741129;82;25586;-69
2022/07/16 11:37:21;;;;;;;3.35;1.40;;;;;;;22.49;34.77;100171.08;1771985;81;26207;-68